createdAt,value
2018-08-11T00:00:07.017Z,45.17
2018-08-11T00:02:34.868Z,46.22
2018-08-11T00:05:02.855Z,46.50
2018-08-11T00:07:30.764Z,45.63
2018-08-11T00:09:58.626Z,45.71
2018-08-11T00:12:26.576Z,46.19
2018-08-11T00:14:54.556Z,46.74
2018-08-11T00:17:22.491Z,49.52
2018-08-11T00:19:50.388Z,47.19
2018-08-11T00:24:44.115Z,47.55
2018-08-11T00:27:12.095Z,47.54
2018-08-11T00:29:40.097Z,50.06
2018-08-11T00:32:08.164Z,48.53
2018-08-11T00:34:36.175Z,48.09
2018-08-11T00:37:04.300Z,49.48
2018-08-11T00:39:32.960Z,46.98
2018-08-11T00:42:01.052Z,48.75
2018-08-11T00:44:29.153Z,49.00
2018-08-11T00:46:57.380Z,48.89
2018-08-11T00:49:25.262Z,49.11
2018-08-11T00:51:53.071Z,48.50
2018-08-11T00:54:20.860Z,48.40
2018-08-11T00:56:48.795Z,50.03
2018-08-11T00:59:16.635Z,50.34
2018-08-11T01:01:44.507Z,49.69
2018-08-11T01:04:12.434Z,50.69
2018-08-11T01:06:40.411Z,49.42
2018-08-11T01:09:10.164Z,49.07
2018-08-11T01:11:38.102Z,48.61
2018-08-11T01:14:06.033Z,48.92
2018-08-11T01:16:33.958Z,48.85
2018-08-11T01:19:01.803Z,49.64
2018-08-11T01:21:29.720Z,48.38
2018-08-11T01:23:57.577Z,49.87
2018-08-11T01:26:25.473Z,48.89
2018-08-11T01:28:53.287Z,47.99
2018-08-11T01:31:21.219Z,48.22
2018-08-11T01:33:49.039Z,49.04
2018-08-11T01:36:16.863Z,49.03
2018-08-11T01:38:44.743Z,48.60
2018-08-11T01:41:12.533Z,48.10
2018-08-11T01:43:40.419Z,48.33
2018-08-11T01:46:08.176Z,47.68
2018-08-11T01:48:35.948Z,47.64
2018-08-11T01:51:03.791Z,47.46
2018-08-11T01:53:31.652Z,47.06
2018-08-11T01:55:59.427Z,47.50
2018-08-11T01:58:27.380Z,47.22
2018-08-11T02:00:55.238Z,47.64
2018-08-11T02:03:23.148Z,47.36
2018-08-11T02:05:51.076Z,46.53
2018-08-11T02:08:18.997Z,47.36
2018-08-11T02:10:46.817Z,47.43
2018-08-11T02:13:14.768Z,47.96
2018-08-11T02:15:42.599Z,47.76
2018-08-11T02:18:10.532Z,48.03
2018-08-11T02:20:38.436Z,48.06
2018-08-11T02:23:06.324Z,47.33
2018-08-11T02:25:34.256Z,47.34
2018-08-11T02:28:02.099Z,47.80
2018-08-11T02:30:29.973Z,48.26
2018-08-11T02:32:57.861Z,47.16
2018-08-11T02:35:25.680Z,47.74
2018-08-11T02:37:53.526Z,47.50
2018-08-11T02:40:21.456Z,48.92
2018-08-11T02:42:49.310Z,47.57
2018-08-11T02:45:17.429Z,47.52
2018-08-11T02:47:46.295Z,47.48
2018-08-11T02:50:14.115Z,48.57
2018-08-11T02:52:42.356Z,48.19
2018-08-11T02:55:10.527Z,47.08
2018-08-11T02:57:38.367Z,47.80
2018-08-11T03:00:08.645Z,47.27
2018-08-11T03:02:36.857Z,48.98
2018-08-11T03:05:04.880Z,47.65
2018-08-11T03:07:32.972Z,48.44
2018-08-11T03:10:00.885Z,47.74
2018-08-11T03:12:28.765Z,48.47
2018-08-11T03:14:56.652Z,47.67
2018-08-11T03:17:24.476Z,48.42
2018-08-11T03:19:52.297Z,47.96
2018-08-11T03:22:20.137Z,47.89
2018-08-11T03:24:48.099Z,48.13
2018-08-11T03:27:15.955Z,48.50
2018-08-11T03:29:43.829Z,47.77
2018-08-11T03:32:11.648Z,48.85
2018-08-11T03:34:39.460Z,47.71
2018-08-11T03:37:07.319Z,48.33
2018-08-11T03:39:35.224Z,49.60
2018-08-11T03:42:03.112Z,49.42
2018-08-11T03:44:30.929Z,49.69
2018-08-11T03:46:58.816Z,49.75
2018-08-11T03:49:29.034Z,49.31
2018-08-11T03:51:56.851Z,49.26
2018-08-11T03:54:24.692Z,49.84
2018-08-11T03:56:52.550Z,49.26
2018-08-11T03:59:21.889Z,49.31
2018-08-11T04:01:49.789Z,48.64
2018-08-11T04:04:17.569Z,49.08
2018-08-11T04:06:45.504Z,48.79
2018-08-11T04:09:13.283Z,48.90
2018-08-11T04:11:41.160Z,48.67
2018-08-11T04:14:09.034Z,49.52
2018-08-11T04:16:37.080Z,48.33
2018-08-11T04:19:05.016Z,48.67
2018-08-11T04:21:32.845Z,49.47
2018-08-11T04:24:00.712Z,50.06
2018-08-11T04:26:28.632Z,48.77
2018-08-11T04:28:56.508Z,48.77
2018-08-11T04:31:24.377Z,49.56
2018-08-11T04:33:52.194Z,48.19
2018-08-11T04:36:20.269Z,48.45
2018-08-11T04:38:48.091Z,48.71
2018-08-11T04:41:15.939Z,48.95
2018-08-11T04:43:43.966Z,49.69
2018-08-11T04:46:11.795Z,48.70
2018-08-11T04:48:39.628Z,48.84
2018-08-11T04:51:07.579Z,48.71
2018-08-11T04:53:35.747Z,48.94
2018-08-11T04:56:03.576Z,48.20
2018-08-11T04:58:31.375Z,49.12
2018-08-11T05:00:59.264Z,48.24
2018-08-11T05:03:27.103Z,48.27
2018-08-11T05:05:54.856Z,49.58
2018-08-11T05:08:22.645Z,47.99
2018-08-11T05:10:50.459Z,49.03
2018-08-11T05:13:18.222Z,49.00
2018-08-11T05:15:46.100Z,48.44
2018-08-11T05:18:13.915Z,49.18
2018-08-11T05:20:41.835Z,49.06
2018-08-11T05:23:09.675Z,48.16
2018-08-11T05:25:37.480Z,49.20
2018-08-11T05:28:06.047Z,48.70
2018-08-11T05:30:33.860Z,48.76
2018-08-11T05:33:01.683Z,49.09
2018-08-11T05:35:29.483Z,47.87
2018-08-11T05:37:57.287Z,48.58
2018-08-11T05:40:25.160Z,48.20
2018-08-11T05:42:53.235Z,47.08
2018-08-11T05:45:21.026Z,47.27
2018-08-11T05:47:48.829Z,46.56
2018-08-11T05:50:16.683Z,46.38
2018-08-11T05:52:44.503Z,46.14
2018-08-11T05:55:12.336Z,45.69
2018-08-11T05:57:40.183Z,46.18
2018-08-11T06:00:09.484Z,46.35
2018-08-11T06:02:37.528Z,45.53
2018-08-11T06:05:05.765Z,45.91
2018-08-11T06:07:33.659Z,45.85
2018-08-11T06:10:01.459Z,45.74
2018-08-11T06:12:29.318Z,45.76
2018-08-11T06:14:57.203Z,45.84
2018-08-11T06:17:25.075Z,44.98
2018-08-11T06:19:52.833Z,45.21
2018-08-11T06:22:20.650Z,44.71
2018-08-11T06:24:48.425Z,44.89
2018-08-11T06:27:16.263Z,44.75
2018-08-11T06:29:44.043Z,44.86
2018-08-11T06:32:11.982Z,44.65
2018-08-11T06:34:39.824Z,43.87
2018-08-11T06:37:07.609Z,46.10
2018-08-11T06:39:35.481Z,50.87
2018-08-11T06:42:03.297Z,51.97
2018-08-11T06:44:31.242Z,53.76
2018-08-11T06:46:59.114Z,55.81
2018-08-11T06:49:26.894Z,55.72
2018-08-11T06:51:54.643Z,56.85
2018-08-11T06:54:22.428Z,58.79
2018-08-11T06:56:50.406Z,58.61
2018-08-11T06:59:18.207Z,60.22
2018-08-11T07:01:46.041Z,58.10
2018-08-11T07:04:13.843Z,60.31
2018-08-11T07:06:41.747Z,59.08
2018-08-11T07:09:10.261Z,59.37
2018-08-11T07:11:38.473Z,59.36
2018-08-11T07:14:06.370Z,59.32
2018-08-11T07:16:34.164Z,58.42
2018-08-11T07:19:01.955Z,57.71
2018-08-11T07:21:29.828Z,57.38
2018-08-11T07:23:57.654Z,56.07
2018-08-11T07:26:25.486Z,58.13
2018-08-11T07:28:53.346Z,56.74
2018-08-11T07:31:21.187Z,58.11
2018-08-11T07:33:49.000Z,57.20
2018-08-11T07:36:16.911Z,57.60
2018-08-11T07:38:44.703Z,56.66
2018-08-11T07:41:12.537Z,56.99
2018-08-11T07:43:40.407Z,54.69
2018-08-11T07:46:08.248Z,53.62
2018-08-11T07:48:36.097Z,54.51
2018-08-11T07:51:03.912Z,55.25
2018-08-11T07:53:31.675Z,54.60
2018-08-11T07:55:59.534Z,54.62
2018-08-11T07:58:27.327Z,53.75
2018-08-11T08:00:55.538Z,53.18
2018-08-11T08:03:23.510Z,54.08
2018-08-11T08:05:51.431Z,52.56
2018-08-11T08:08:19.330Z,50.56
2018-08-11T08:10:47.905Z,51.18
2018-08-11T08:13:15.779Z,49.37
2018-08-11T08:15:43.647Z,50.59
2018-08-11T08:18:11.556Z,50.21
2018-08-11T08:20:39.332Z,50.86
2018-08-11T08:23:07.161Z,50.23
2018-08-11T08:25:35.224Z,48.73
2018-08-11T08:28:03.043Z,49.58
2018-08-11T08:30:30.932Z,49.26
2018-08-11T08:32:58.803Z,48.66
2018-08-11T08:35:26.591Z,47.01
2018-08-11T08:37:54.416Z,47.27
2018-08-11T08:40:22.305Z,46.92
2018-08-11T08:42:50.106Z,45.90
2018-08-11T08:45:17.951Z,45.91
2018-08-11T08:47:45.743Z,47.63
2018-08-11T08:50:13.604Z,46.86
2018-08-11T08:52:41.446Z,46.49
2018-08-11T08:55:09.271Z,44.65
2018-08-11T08:57:37.123Z,45.93
2018-08-11T09:00:05.456Z,43.79
2018-08-11T09:02:33.320Z,44.06
2018-08-11T09:05:01.139Z,43.43
2018-08-11T09:07:28.956Z,43.28
2018-08-11T09:09:56.751Z,43.63
2018-08-11T09:12:24.663Z,42.88
2018-08-11T09:14:52.523Z,43.57
2018-08-11T09:17:20.356Z,41.93
2018-08-11T09:19:48.101Z,42.43
2018-08-11T09:22:15.966Z,41.83
2018-08-11T09:24:43.816Z,42.76
2018-08-11T09:27:11.626Z,42.73
2018-08-11T09:29:39.478Z,41.25
2018-08-11T09:32:07.345Z,41.57
2018-08-11T09:34:35.247Z,40.28
2018-08-11T09:37:02.991Z,38.91
2018-08-11T09:39:30.771Z,39.16
2018-08-11T09:41:58.556Z,39.12
2018-08-11T09:44:26.366Z,38.15
2018-08-11T09:46:54.154Z,37.91
2018-08-11T09:49:21.933Z,36.61
2018-08-11T09:51:49.779Z,35.09
2018-08-11T09:54:17.594Z,34.48
2018-08-11T09:56:45.430Z,33.22
2018-08-11T09:59:13.265Z,31.88
2018-08-11T10:01:41.823Z,34.24
2018-08-11T10:04:09.787Z,32.69
2018-08-11T10:06:37.631Z,32.05
2018-08-11T10:09:09.063Z,33.10
2018-08-11T10:11:36.847Z,32.41
2018-08-11T10:14:05.084Z,30.50
2018-08-11T10:16:32.866Z,30.82
2018-08-11T10:19:00.739Z,30.30
2018-08-11T10:21:28.509Z,30.14
2018-08-11T10:23:56.422Z,29.19
2018-08-11T10:26:24.279Z,30.14
2018-08-11T10:28:52.100Z,30.21
2018-08-11T10:31:19.907Z,30.69
2018-08-11T10:33:47.780Z,30.52
2018-08-11T10:36:15.608Z,29.94
2018-08-11T10:38:43.467Z,31.27
2018-08-11T10:41:11.364Z,30.75
2018-08-11T10:43:39.275Z,29.74
2018-08-11T10:46:07.048Z,30.45
2018-08-11T10:48:34.867Z,30.09
2018-08-11T10:51:02.646Z,30.44
2018-08-11T10:53:30.467Z,30.90
2018-08-11T10:55:58.264Z,29.25
2018-08-11T10:58:26.023Z,27.71
2018-08-11T11:00:53.787Z,27.26
2018-08-11T11:03:21.616Z,25.49
2018-08-11T11:05:49.427Z,24.73
2018-08-11T11:08:17.310Z,23.27
2018-08-11T11:10:45.050Z,23.18
2018-08-11T11:13:12.862Z,22.63
2018-08-11T11:15:40.623Z,22.16
2018-08-11T11:18:08.383Z,21.24
2018-08-11T11:20:36.215Z,22.78
2018-08-11T11:23:04.232Z,23.09
2018-08-11T11:25:31.931Z,23.31
2018-08-11T11:27:59.771Z,23.49
2018-08-11T11:30:27.674Z,21.57
2018-08-11T11:32:55.459Z,21.21
2018-08-11T11:35:23.256Z,20.68
2018-08-11T11:37:51.103Z,19.97
2018-08-11T11:40:18.907Z,20.40
2018-08-11T11:42:46.724Z,21.12
2018-08-11T11:45:14.601Z,19.98
2018-08-11T11:47:42.439Z,20.76
2018-08-11T11:50:10.236Z,20.49
2018-08-11T11:52:38.018Z,20.07
2018-08-11T11:55:05.931Z,20.65
2018-08-11T11:57:33.667Z,18.99
2018-08-11T12:00:01.450Z,18.56
2018-08-11T12:02:29.283Z,19.11
2018-08-11T12:04:57.059Z,18.73
2018-08-11T12:07:24.823Z,19.08
2018-08-11T12:09:52.631Z,18.71
2018-08-11T12:12:20.439Z,18.24
2018-08-11T12:14:48.243Z,17.46
2018-08-11T12:17:16.068Z,16.58
2018-08-11T12:19:43.908Z,17.25
2018-08-11T12:22:11.723Z,17.49
2018-08-11T12:24:39.516Z,17.20
2018-08-11T12:27:07.423Z,17.34
2018-08-11T12:29:35.285Z,17.46
2018-08-11T12:32:03.109Z,17.47
2018-08-11T12:34:30.885Z,17.69
2018-08-11T12:36:58.647Z,17.65
2018-08-11T12:39:26.555Z,17.11
2018-08-11T12:41:54.390Z,16.55
2018-08-11T12:44:22.223Z,18.33
2018-08-11T12:46:50.062Z,16.96
2018-08-11T12:49:17.875Z,16.80
2018-08-11T12:51:45.717Z,16.37
2018-08-11T12:54:13.576Z,16.99
2018-08-11T12:56:41.427Z,17.02
2018-08-11T12:59:09.195Z,16.10
2018-08-11T13:01:37.256Z,17.83
2018-08-11T13:04:05.229Z,15.85
2018-08-11T13:06:33.019Z,16.37
2018-08-11T13:09:00.833Z,16.77
2018-08-11T13:11:28.728Z,17.40
2018-08-11T13:13:56.636Z,16.04
2018-08-11T13:16:24.419Z,16.85
2018-08-11T13:18:52.464Z,17.73
2018-08-11T13:21:20.329Z,16.98
2018-08-11T13:23:48.151Z,17.28
2018-08-11T13:26:16.079Z,17.41
2018-08-11T13:28:43.971Z,18.03
2018-08-11T13:31:11.783Z,18.41
2018-08-11T13:33:39.623Z,18.38
2018-08-11T13:36:07.411Z,19.38
2018-08-11T13:38:35.309Z,18.81
2018-08-11T13:41:03.182Z,18.89
2018-08-11T13:43:31.055Z,19.30
2018-08-11T13:45:58.919Z,19.13
2018-08-11T13:48:26.667Z,19.77
2018-08-11T13:50:54.412Z,19.41
2018-08-11T13:53:22.199Z,20.33
2018-08-11T13:55:53.351Z,20.00
2018-08-11T13:58:21.147Z,21.24
2018-08-11T14:00:52.021Z,20.07
2018-08-11T14:03:19.848Z,20.38
2018-08-11T14:05:51.103Z,19.95
2018-08-11T14:08:19.240Z,19.57
2018-08-11T14:10:47.004Z,19.92
2018-08-11T14:13:15.020Z,20.11
2018-08-11T14:15:42.767Z,20.98
2018-08-11T14:18:18.037Z,20.20
2018-08-11T14:20:46.000Z,20.59
2018-08-11T14:23:13.831Z,21.37
2018-08-11T14:25:41.658Z,20.60
2018-08-11T14:28:09.473Z,21.81
2018-08-11T14:30:37.344Z,21.35
2018-08-11T14:33:05.168Z,21.35
2018-08-11T14:35:32.980Z,21.01
2018-08-11T14:38:00.800Z,20.65
2018-08-11T14:40:28.619Z,20.59
2018-08-11T14:42:56.403Z,21.20
2018-08-11T14:45:24.179Z,20.84
2018-08-11T14:47:52.045Z,21.45
2018-08-11T14:50:19.702Z,21.17
2018-08-11T14:52:47.547Z,22.25
2018-08-11T14:55:15.457Z,20.91
2018-08-11T14:57:43.235Z,21.23
2018-08-11T15:00:12.680Z,21.91
2018-08-11T15:02:40.927Z,22.11
2018-08-11T15:05:09.320Z,21.38
2018-08-11T15:07:37.593Z,20.37
2018-08-11T15:10:06.314Z,21.13
2018-08-11T15:12:34.219Z,21.90
2018-08-11T15:15:02.049Z,21.82
2018-08-11T15:17:29.888Z,21.91
2018-08-11T15:19:57.687Z,21.64
2018-08-11T15:22:25.518Z,22.39
2018-08-11T15:24:53.316Z,22.55
2018-08-11T15:27:21.185Z,21.96
2018-08-11T15:29:49.095Z,22.70
2018-08-11T15:32:16.931Z,22.68
2018-08-11T15:34:44.688Z,23.05
2018-08-11T15:37:12.476Z,21.85
2018-08-11T15:39:40.333Z,22.33
2018-08-11T15:42:08.063Z,22.09
2018-08-11T15:44:35.943Z,21.81
2018-08-11T15:47:03.968Z,22.45
2018-08-11T15:49:31.763Z,22.63
2018-08-11T15:51:59.631Z,22.71
2018-08-11T15:54:27.497Z,22.57
2018-08-11T15:56:55.280Z,21.74
2018-08-11T15:59:23.137Z,22.15
2018-08-11T16:01:51.008Z,22.68
2018-08-11T16:04:18.790Z,21.99
2018-08-11T16:06:46.648Z,23.13
2018-08-11T16:09:14.452Z,22.61
2018-08-11T16:11:42.200Z,22.59
2018-08-11T16:14:10.056Z,22.43
2018-08-11T16:16:37.843Z,22.90
2018-08-11T16:19:05.746Z,22.29
2018-08-11T16:21:33.547Z,22.24
2018-08-11T16:24:01.415Z,22.26
2018-08-11T16:26:29.185Z,22.64
2018-08-11T16:28:56.951Z,22.87
2018-08-11T16:31:24.951Z,23.03
2018-08-11T16:33:52.921Z,22.59
2018-08-11T16:36:20.718Z,22.71
2018-08-11T16:38:48.551Z,23.51
2018-08-11T16:41:16.475Z,23.10
2018-08-11T16:43:44.270Z,23.27
2018-08-11T16:46:12.038Z,23.67
2018-08-11T16:48:39.867Z,23.87
2018-08-11T16:51:07.743Z,23.46
2018-08-11T16:53:35.574Z,22.72
2018-08-11T16:56:03.447Z,23.71
2018-08-11T16:58:31.305Z,24.33
2018-08-11T17:00:59.200Z,23.71
2018-08-11T17:03:27.011Z,22.47
2018-08-11T17:05:54.936Z,23.37
2018-08-11T17:08:22.659Z,23.56
2018-08-11T17:10:50.642Z,23.79
2018-08-11T17:13:18.395Z,23.29
2018-08-11T17:15:46.260Z,23.31
2018-08-11T17:18:14.195Z,23.82
2018-08-11T17:20:42.010Z,24.07
2018-08-11T17:23:09.799Z,23.52
2018-08-11T17:25:37.716Z,24.46
2018-08-11T17:28:05.692Z,24.13
2018-08-11T17:30:33.579Z,24.68
2018-08-11T17:33:01.356Z,24.02
2018-08-11T17:35:29.168Z,24.60
2018-08-11T17:37:56.995Z,24.75
2018-08-11T17:40:24.842Z,25.33
2018-08-11T17:42:52.670Z,25.11
2018-08-11T17:45:20.565Z,24.62
2018-08-11T17:47:48.403Z,25.23
2018-08-11T17:50:16.280Z,25.01
2018-08-11T17:52:44.084Z,25.47
2018-08-11T17:55:11.956Z,25.17
2018-08-11T17:57:39.764Z,24.83
2018-08-11T18:00:07.672Z,25.51
2018-08-11T18:02:35.511Z,25.27
2018-08-11T18:05:03.852Z,25.17
2018-08-11T18:07:32.209Z,26.02
2018-08-11T18:10:00.040Z,26.05
2018-08-11T18:12:27.859Z,25.80
2018-08-11T18:14:55.647Z,26.29
2018-08-11T18:17:23.398Z,26.10
2018-08-11T18:19:51.298Z,26.54
2018-08-11T18:22:19.011Z,26.59
2018-08-11T18:24:46.916Z,25.91
2018-08-11T18:27:14.715Z,26.45
2018-08-11T18:29:42.574Z,26.35
2018-08-11T18:32:10.439Z,26.56
2018-08-11T18:34:38.331Z,26.27
2018-08-11T18:37:06.151Z,26.06
2018-08-11T18:39:33.927Z,26.33
2018-08-11T18:42:01.759Z,26.99
2018-08-11T18:44:29.532Z,27.06
2018-08-11T18:46:57.383Z,27.38
2018-08-11T18:49:25.360Z,27.61
2018-08-11T18:51:53.172Z,27.58
2018-08-11T18:54:20.991Z,27.13
2018-08-11T18:56:48.874Z,27.50
2018-08-11T18:59:16.722Z,27.91
2018-08-11T19:01:44.575Z,28.31
2018-08-11T19:04:12.558Z,27.86
2018-08-11T19:06:40.511Z,28.45
2018-08-11T19:09:10.607Z,28.00
2018-08-11T19:11:38.487Z,28.28
2018-08-11T19:14:06.859Z,29.04
2018-08-11T19:16:34.639Z,28.81
2018-08-11T19:19:02.475Z,28.71
2018-08-11T19:21:30.255Z,28.72
2018-08-11T19:23:58.041Z,29.64
2018-08-11T19:26:25.871Z,29.29
2018-08-11T19:28:53.803Z,29.18
2018-08-11T19:31:21.635Z,29.26
2018-08-11T19:33:49.517Z,29.67
2018-08-11T19:38:44.746Z,30.34
2018-08-11T19:41:12.675Z,31.34
2018-08-11T19:43:40.503Z,30.89
2018-08-11T19:46:08.581Z,30.81
2018-08-11T19:48:36.428Z,30.74
2018-08-11T19:51:04.897Z,31.88
2018-08-11T19:53:32.761Z,31.87
2018-08-11T19:56:00.708Z,30.83
2018-08-11T19:58:28.491Z,31.45
2018-08-11T20:00:56.328Z,30.99
2018-08-11T20:03:24.255Z,31.57
2018-08-11T20:05:52.123Z,32.28
2018-08-11T20:08:19.881Z,32.32
2018-08-11T20:10:47.753Z,32.27
2018-08-11T20:13:16.460Z,32.93
2018-08-11T20:15:44.241Z,32.78
2018-08-11T20:18:12.132Z,32.50
2018-08-11T20:20:40.003Z,34.09
2018-08-11T20:23:07.953Z,34.26
2018-08-11T20:25:35.985Z,34.11
2018-08-11T20:28:03.640Z,36.61
2018-08-11T20:30:31.666Z,35.37
2018-08-11T20:32:59.513Z,36.33
2018-08-11T20:35:27.554Z,37.83
2018-08-11T20:37:55.455Z,41.94
2018-08-11T20:40:23.391Z,41.64
2018-08-11T20:42:51.298Z,42.04
2018-08-11T20:45:19.155Z,39.42
2018-08-11T20:47:47.134Z,40.03
2018-08-11T20:50:15.170Z,39.46
2018-08-11T20:52:43.044Z,39.16
2018-08-11T20:55:10.967Z,38.61
2018-08-11T20:57:38.958Z,39.69
2018-08-11T21:00:10.688Z,41.39
2018-08-11T21:02:38.439Z,41.48
2018-08-11T21:05:10.012Z,39.53
2018-08-11T21:07:38.471Z,38.08
2018-08-11T21:10:09.357Z,39.34
2018-08-11T21:12:37.403Z,39.14
2018-08-11T21:15:06.412Z,38.86
2018-08-11T21:17:34.195Z,37.67
2018-08-11T21:20:02.072Z,37.73
2018-08-11T21:22:29.916Z,38.76
2018-08-11T21:24:57.747Z,38.78
2018-08-11T21:27:25.661Z,39.87
2018-08-11T21:29:53.446Z,39.53
2018-08-11T21:32:21.315Z,38.39
2018-08-11T21:34:49.644Z,41.62
2018-08-11T21:37:17.553Z,41.36
2018-08-11T21:39:45.356Z,44.74
2018-08-11T21:42:13.191Z,43.83
2018-08-11T21:44:41.165Z,45.39
2018-08-11T21:47:09.099Z,44.14
2018-08-11T21:49:36.959Z,42.64
2018-08-11T21:52:04.968Z,42.11
2018-08-11T21:54:32.806Z,41.58
2018-08-11T21:57:00.625Z,41.88
2018-08-11T21:59:28.448Z,41.02
2018-08-11T22:01:56.367Z,41.75
2018-08-11T22:04:28.811Z,41.70
2018-08-11T22:06:56.695Z,41.79
2018-08-11T22:09:24.569Z,41.14
2018-08-11T22:11:52.421Z,42.21
2018-08-11T22:14:20.292Z,42.38
2018-08-11T22:16:48.121Z,43.38
2018-08-11T22:19:16.043Z,43.12
2018-08-11T22:21:43.888Z,42.99
2018-08-11T22:24:11.759Z,42.84
2018-08-11T22:26:39.610Z,42.71
2018-08-11T22:29:07.522Z,42.81
2018-08-11T22:31:35.459Z,42.39
2018-08-11T22:34:03.300Z,42.48
2018-08-11T22:36:31.105Z,47.48
2018-08-11T22:38:58.922Z,45.09
2018-08-11T22:41:26.744Z,46.85
2018-08-11T22:43:54.630Z,45.91
2018-08-11T22:46:22.499Z,44.93
2018-08-11T22:48:50.452Z,44.64
2018-08-11T22:51:18.889Z,44.22
2018-08-11T22:53:46.762Z,43.59
2018-08-11T22:56:14.578Z,43.99
2018-08-11T22:58:42.531Z,46.33
2018-08-11T23:01:10.289Z,44.72
2018-08-11T23:03:38.238Z,44.47
2018-08-11T23:06:06.160Z,44.45
2018-08-11T23:08:34.019Z,45.73
2018-08-11T23:11:01.854Z,48.46
2018-08-11T23:13:29.672Z,45.20
2018-08-11T23:15:57.569Z,46.09
2018-08-11T23:18:25.507Z,47.94
2018-08-11T23:20:53.335Z,50.11
2018-08-11T23:23:21.173Z,49.65
2018-08-11T23:25:49.010Z,48.15
2018-08-11T23:28:16.878Z,49.13
2018-08-11T23:30:44.751Z,47.95
2018-08-11T23:33:12.648Z,49.92
2018-08-11T23:35:40.503Z,49.55
2018-08-11T23:38:08.457Z,50.17
2018-08-11T23:40:36.395Z,50.15
2018-08-11T23:43:04.316Z,50.83
2018-08-11T23:45:32.233Z,52.17
2018-08-11T23:48:00.136Z,52.27
2018-08-11T23:50:28.008Z,51.72
2018-08-11T23:52:55.932Z,50.62
2018-08-11T23:55:23.795Z,51.09
2018-08-11T23:57:51.607Z,56.55
